createdAt,value
2023-03-14T00:03:09.537Z,45.85
2023-03-14T00:08:13.570Z,44.94
2023-03-14T00:13:10.618Z,45.82
2023-03-14T00:18:07.608Z,44.48
2023-03-14T00:23:04.333Z,44.15
2023-03-14T00:28:03.938Z,44.41
2023-03-14T00:33:01.665Z,44.53
2023-03-14T00:38:00.917Z,46.98
2023-03-14T00:43:00.715Z,46.72
2023-03-14T00:48:08.002Z,45.75
2023-03-14T00:53:13.167Z,44.83
2023-03-14T00:58:10.542Z,44.59
2023-03-14T01:03:10.148Z,45.65
2023-03-14T01:08:08.741Z,45.77
2023-03-14T01:13:08.295Z,45.31
2023-03-14T01:18:14.239Z,45.24
2023-03-14T01:23:14.033Z,45.87
2023-03-14T01:28:10.998Z,46.79
2023-03-14T01:33:13.703Z,48.41
2023-03-14T01:38:18.463Z,46.54
2023-03-14T01:43:19.096Z,45.94
2023-03-14T01:48:18.413Z,45.80
2023-03-14T01:53:16.017Z,45.87
2023-03-14T01:58:18.730Z,45.93
2023-03-14T02:03:17.698Z,45.84
2023-03-14T02:08:17.689Z,45.94
2023-03-14T02:13:22.841Z,46.86
2023-03-14T02:18:48.566Z,48.30
2023-03-14T02:24:09.849Z,49.12
2023-03-14T02:29:13.924Z,49.01
2023-03-14T02:34:15.050Z,49.12
2023-03-14T02:39:15.210Z,48.60
2023-03-14T02:44:15.620Z,48.61
2023-03-14T02:49:14.843Z,48.57
2023-03-14T02:54:16.205Z,48.64
2023-03-14T02:59:13.777Z,49.15
2023-03-14T03:04:34.493Z,48.69
2023-03-14T03:09:33.821Z,48.38
2023-03-14T03:14:30.921Z,47.25
2023-03-14T03:19:32.592Z,48.17
2023-03-14T03:24:31.063Z,49.02
2023-03-14T03:29:27.894Z,48.79
2023-03-14T03:34:25.753Z,49.14
2023-03-14T03:39:26.802Z,49.77
2023-03-14T03:44:28.137Z,48.33
2023-03-14T03:49:25.102Z,47.93
2023-03-14T03:54:23.458Z,47.01
2023-03-14T03:59:20.379Z,48.13
2023-03-14T04:04:21.905Z,49.89
2023-03-14T04:09:21.223Z,50.33
2023-03-14T04:14:39.499Z,48.60
2023-03-14T04:19:45.366Z,48.83
2023-03-14T04:24:45.017Z,47.83
2023-03-14T04:29:41.947Z,48.48
2023-03-14T04:34:40.971Z,51.25
2023-03-14T04:39:40.246Z,46.84
2023-03-14T04:44:59.283Z,50.13
2023-03-14T04:49:58.463Z,50.92
2023-03-14T04:54:56.966Z,49.04
2023-03-14T04:59:56.222Z,48.80
2023-03-14T05:05:13.774Z,47.56
2023-03-14T05:10:23.895Z,47.16
2023-03-14T05:15:39.135Z,45.94
2023-03-14T05:20:54.499Z,46.17
2023-03-14T05:26:01.062Z,45.68
2023-03-14T05:31:20.267Z,45.38
2023-03-14T05:36:24.278Z,44.84
2023-03-14T05:41:45.394Z,44.40
2023-03-14T05:47:11.388Z,44.13
2023-03-14T05:52:23.054Z,44.53
2023-03-14T05:57:51.095Z,44.16
2023-03-14T06:03:07.591Z,43.27
2023-03-14T06:08:10.720Z,45.52
2023-03-14T06:13:13.810Z,47.65
2023-03-14T06:18:10.866Z,48.69
2023-03-14T06:23:08.256Z,49.11
2023-03-14T06:28:10.754Z,48.25
2023-03-14T06:33:20.557Z,47.80
2023-03-14T06:38:22.182Z,47.76
2023-03-14T06:43:27.280Z,46.94
2023-03-14T06:48:27.733Z,47.08
2023-03-14T06:53:30.695Z,47.39
2023-03-14T06:58:33.439Z,47.58
2023-03-14T07:03:35.318Z,47.37
2023-03-14T07:08:35.670Z,45.88
2023-03-14T07:13:34.368Z,45.64
2023-03-14T07:18:36.758Z,44.29
2023-03-14T07:23:43.965Z,44.37
2023-03-14T07:28:43.121Z,43.26
2023-03-14T07:34:06.283Z,43.26
2023-03-14T07:39:25.352Z,43.15
2023-03-14T07:44:34.549Z,42.98
2023-03-14T07:49:31.465Z,42.40
2023-03-14T07:54:43.894Z,42.70
2023-03-14T07:59:49.931Z,42.54
2023-03-14T08:04:48.490Z,41.82
2023-03-14T08:09:45.304Z,41.92
2023-03-14T08:14:47.612Z,41.67
2023-03-14T08:19:55.535Z,42.38
2023-03-14T08:25:01.594Z,41.50
2023-03-14T08:30:14.911Z,41.34
2023-03-14T08:35:17.198Z,41.28
2023-03-14T08:40:33.008Z,40.84
2023-03-14T08:45:50.095Z,40.72
2023-03-14T08:50:56.147Z,40.19
2023-03-14T08:55:55.697Z,39.73
2023-03-14T09:00:57.607Z,39.42
2023-03-14T09:06:09.063Z,39.15
2023-03-14T09:11:18.751Z,38.36
2023-03-14T09:16:27.779Z,38.34
2023-03-14T09:21:34.531Z,37.74
2023-03-14T09:26:32.809Z,37.97
2023-03-14T09:31:58.986Z,38.08
2023-03-14T09:37:14.508Z,37.73
2023-03-14T09:42:16.646Z,38.24
2023-03-14T09:47:18.000Z,37.70
2023-03-14T09:52:44.557Z,37.62
2023-03-14T09:57:50.888Z,37.76
2023-03-14T10:02:52.293Z,36.81
2023-03-14T10:08:02.374Z,36.28
2023-03-14T10:13:11.468Z,36.29
2023-03-14T10:18:16.270Z,35.42
2023-03-14T10:23:42.832Z,34.97
2023-03-14T10:28:49.355Z,34.59
2023-03-14T10:34:03.584Z,33.90
2023-03-14T10:39:22.660Z,33.82
2023-03-14T10:44:35.194Z,33.19
2023-03-14T10:49:50.389Z,33.00
2023-03-14T10:55:05.270Z,32.06
2023-03-14T11:00:13.345Z,32.25
2023-03-14T11:05:46.383Z,31.71
2023-03-14T11:10:54.826Z,32.77
2023-03-14T11:16:13.516Z,32.98
2023-03-14T11:21:36.093Z,30.59
2023-03-14T11:26:38.362Z,30.40
2023-03-14T11:31:51.722Z,30.14
2023-03-14T11:36:56.947Z,30.08
2023-03-14T11:42:00.749Z,29.99
2023-03-14T11:47:13.561Z,28.99
2023-03-14T11:52:20.353Z,27.36
2023-03-14T11:57:24.933Z,27.28
2023-03-14T12:02:29.721Z,27.77
2023-03-14T12:07:32.590Z,26.55
2023-03-14T12:12:42.336Z,26.30
2023-03-14T12:17:53.481Z,26.22
2023-03-14T12:22:54.760Z,26.74
2023-03-14T12:28:15.720Z,26.27
2023-03-14T12:33:29.675Z,25.65
2023-03-14T12:38:38.159Z,22.30
2023-03-14T12:43:40.429Z,23.63
2023-03-14T12:49:01.362Z,24.20
2023-03-14T12:54:27.910Z,21.17
2023-03-14T12:59:36.771Z,21.30
2023-03-14T13:04:41.333Z,20.56
2023-03-14T13:10:01.630Z,19.72
2023-03-14T13:15:10.755Z,19.34
2023-03-14T13:20:14.228Z,18.80
2023-03-14T13:25:14.495Z,19.60
2023-03-14T13:30:19.748Z,19.49
2023-03-14T13:35:48.029Z,18.84
2023-03-14T13:40:52.388Z,19.43
2023-03-14T13:46:02.225Z,19.16
2023-03-14T13:51:02.915Z,19.60
2023-03-14T13:56:24.861Z,19.73
2023-03-14T14:01:51.143Z,19.89
2023-03-14T14:07:30.485Z,19.25
2023-03-14T14:12:37.227Z,19.72
2023-03-14T14:17:38.276Z,19.79
2023-03-14T14:22:43.952Z,19.12
2023-03-14T14:28:01.843Z,19.77
2023-03-14T14:33:15.784Z,19.21
2023-03-14T14:38:19.044Z,19.41
2023-03-14T14:43:20.251Z,19.73
2023-03-14T14:48:21.610Z,18.98
2023-03-14T14:53:34.851Z,18.74
2023-03-14T14:58:40.967Z,19.27
2023-03-14T15:04:17.354Z,18.86
2023-03-14T15:09:42.644Z,19.15
2023-03-14T15:14:53.326Z,18.82
2023-03-14T15:19:50.960Z,18.41
2023-03-14T15:25:43.451Z,19.25
2023-03-14T15:30:51.641Z,19.56
2023-03-14T15:36:03.110Z,19.81
2023-03-14T15:41:04.089Z,19.81
2023-03-14T15:46:10.615Z,20.27
2023-03-14T15:51:12.741Z,20.18
2023-03-14T15:56:12.546Z,20.15
2023-03-14T16:01:13.290Z,20.33
2023-03-14T16:06:13.792Z,20.54
2023-03-14T16:11:16.904Z,20.07
2023-03-14T16:16:27.093Z,20.49
2023-03-14T16:21:38.216Z,20.43
2023-03-14T16:26:42.757Z,20.28
2023-03-14T16:32:01.808Z,20.39
2023-03-14T16:37:12.107Z,20.38
2023-03-14T16:42:10.526Z,20.34
2023-03-14T16:47:10.910Z,20.55
2023-03-14T16:52:12.252Z,20.86
2023-03-14T16:57:10.930Z,20.67
2023-03-14T17:02:09.449Z,21.16
2023-03-14T17:07:10.054Z,21.16
2023-03-14T17:12:14.340Z,21.22
2023-03-14T17:17:12.293Z,21.54
2023-03-14T17:22:22.361Z,21.69
2023-03-14T17:27:22.409Z,22.04
2023-03-14T17:32:25.252Z,22.17
2023-03-14T17:37:26.144Z,22.41
2023-03-14T17:42:27.617Z,22.81
2023-03-14T17:47:24.584Z,23.18
2023-03-14T17:52:24.828Z,23.47
2023-03-14T17:57:21.829Z,23.67
2023-03-14T18:02:23.315Z,24.19
2023-03-14T18:07:20.554Z,24.79
2023-03-14T18:12:18.534Z,25.26
2023-03-14T18:17:15.469Z,25.88
2023-03-14T18:22:14.057Z,25.93
2023-03-14T18:27:13.382Z,26.57
2023-03-14T18:32:12.640Z,26.80
2023-03-14T18:37:14.483Z,26.03
2023-03-14T18:42:11.591Z,26.29
2023-03-14T18:47:11.847Z,26.00
2023-03-14T18:52:11.299Z,25.45
2023-03-14T18:57:08.105Z,25.10
2023-03-14T19:02:05.114Z,24.87
2023-03-14T19:07:03.054Z,24.68
2023-03-14T19:12:02.268Z,25.03
2023-03-14T19:17:01.798Z,25.14
2023-03-14T19:22:00.746Z,25.62
2023-03-14T19:27:01.901Z,26.44
2023-03-14T19:32:02.963Z,27.04
2023-03-14T19:37:10.883Z,27.58
2023-03-14T19:42:11.323Z,28.12
2023-03-14T19:47:08.333Z,28.21
2023-03-14T19:52:05.461Z,28.45
2023-03-14T19:57:04.886Z,28.02
2023-03-14T20:02:02.544Z,27.82
2023-03-14T20:06:59.554Z,28.88
2023-03-14T20:11:56.398Z,29.00
2023-03-14T20:17:02.837Z,29.14
2023-03-14T20:22:04.292Z,29.39
2023-03-14T20:27:03.674Z,31.39
2023-03-14T20:32:04.929Z,31.43
2023-03-14T20:37:05.887Z,31.74
2023-03-14T20:42:04.789Z,31.53
2023-03-14T20:47:03.117Z,31.51
2023-03-14T20:51:59.934Z,31.78
2023-03-14T20:56:57.565Z,32.64
2023-03-14T21:07:19.648Z,34.70
2023-03-14T21:12:17.250Z,34.71
2023-03-14T21:17:17.068Z,34.88
2023-03-14T21:22:18.057Z,34.85
2023-03-14T21:27:16.710Z,34.46
2023-03-14T21:32:16.946Z,35.10
2023-03-14T21:37:15.304Z,35.93
2023-03-14T21:42:13.806Z,35.75
2023-03-14T21:47:10.801Z,35.84
2023-03-14T21:52:10.424Z,35.83
2023-03-14T21:57:08.272Z,35.96
2023-03-14T22:02:06.694Z,35.29
2023-03-14T22:07:03.637Z,34.71
2023-03-14T22:12:01.618Z,35.67
2023-03-14T22:16:59.330Z,35.93
2023-03-14T22:22:00.587Z,35.44
2023-03-14T22:27:01.006Z,35.59
2023-03-14T22:32:01.542Z,35.66
2023-03-14T22:37:00.237Z,35.13
2023-03-14T22:42:00.474Z,35.07
2023-03-14T22:46:57.435Z,34.71
2023-03-14T22:51:55.007Z,35.12
2023-03-14T22:56:51.981Z,35.39
2023-03-14T23:01:51.905Z,35.25
2023-03-14T23:06:48.797Z,34.91
2023-03-14T23:11:51.488Z,35.19
2023-03-14T23:16:48.379Z,35.44
2023-03-14T23:21:45.737Z,35.29
2023-03-14T23:26:45.645Z,35.29
2023-03-14T23:31:43.637Z,35.20
2023-03-14T23:36:40.695Z,35.09
2023-03-14T23:41:37.548Z,35.07
2023-03-14T23:46:34.626Z,35.06
2023-03-14T23:51:32.088Z,35.24
2023-03-14T23:56:30.710Z,35.96
